Aviation Digital Data Service (ADDS)

Output produced by METARs form (1508 UTC 23 October 2017)
found at http://www.aviationweather.gov/adds/metars/
 
KSEG 231453Z AUTO 17004KT 10SM OVC015 18/16 A3020 RMK AO2 SLP225 T01780156 56015
KSEG 231353Z AUTO 18003KT 10SM OVC011 17/15 A3022 RMK AO2 SLP233 T01670150
KSEG 231253Z AUTO 00000KT 8SM OVC010 14/14 A3024 RMK AO2 SLP241 T01440139
KSEG 231153Z AUTO 00000KT 10SM OVC013 13/12 A3024 RMK AO2 SLP241 T01330122 10133 20100 56011
KSEG 231124Z AUTO 00000KT 10SM OVC014 13/12 A3025 RMK AO2 T01280117
KSEG 231053Z AUTO 00000KT 10SM OVC017 12/11 A3024 RMK AO2 SLP241 T01220111
KSEG 231019Z AUTO 00000KT 10SM SCT020 BKN029 OVC044 12/11 A3026 RMK AO2 T01170111
KSEG 230953Z AUTO 00000KT 10SM FEW028 BKN042 11/11 A3026 RMK AO2 SLP247 T01110106
KSEG 230934Z AUTO 00000KT 10SM SCT019 SCT042 12/11 A3027 RMK AO2 T01170111
KSEG 230853Z AUTO 00000KT 10SM OVC019 13/12 A3028 RMK AO2 SLP251 T01280117 58001
KSEG 230753Z AUTO 35003KT 10SM OVC018 12/11 A3028 RMK AO2 SLP253 T01220111
KSEG 230653Z AUTO 35003KT 10SM BKN023 11/10 A3028 RMK AO2 SLP253 T01110100
KSEG 230553Z AUTO 33003KT 10SM CLR 10/09 A3028 RMK AO2 SLP252 T01000094 10189 20094 56011
KSEG 230453Z AUTO 33004KT 10SM CLR 10/09 A3029 RMK AO2 SLP257 T01000094 402330044
KSEG 230353Z AUTO 00000KT 10SM CLR 10/09 A3030 RMK AO2 SLP260 T01000094
KSEG 230253Z AUTO 00000KT 10SM CLR 11/10 A3031 RMK AO2 SLP265 T01110100 50002
KSEG 230153Z AUTO 00000KT 10SM CLR 11/11 A3032 RMK AO2 SLP269 T01110106
KSEG 230053Z AUTO 00000KT 10SM CLR 13/11 A3032 RMK AO2 SLP269 T01330106
KSEG 222353Z AUTO 16005KT 10SM CLR 19/09 A3031 RMK AO2 SLP263 T01890089 10233 20167 53007
KSEG 222253Z AUTO 15005KT 10SM CLR 19/09 A3029 RMK AO2 SLP258 T01890089
KSEG 222153Z AUTO 15004KT 10SM CLR 21/09 A3029 RMK AO2 SLP257 T02060094
KSEG 222053Z AUTO 18005KT 10SM CLR 22/12 A3029 RMK AO2 SLP256 T02170117 56015
KSEG 221953Z AUTO 19005KT 10SM CLR 22/12 A3030 RMK AO2 SLP259 T02220122
KSEG 221853Z AUTO 18007KT 10SM CLR 23/12 A3031 RMK AO2 SLP264 T02330122
KSEG 221753Z AUTO 19008KT 10SM CLR 23/12 A3033 RMK AO2 SLP271 T02280117 10228 20050 58020
KSEG 221653Z AUTO 00000KT 10SM CLR 21/13 A3035 RMK AO2 SLP279 T02110128
KSEG 221553Z AUTO 00000KT 10SM CLR 18/11 A3038 RMK AO2 SLP287 T01780106
KSEG 221453Z AUTO 00000KT 10SM CLR 14/11 A3039 RMK AO2 SLP292 T01390106 58004
KSEG 221353Z AUTO 00000KT 10SM CLR 11/09 A3040 RMK AO2 SLP297 T01060094
KSEG 221253Z AUTO 00000KT 5SM BR SCT001 08/08 A3040 RMK AO2 SLP297 T00780078
KSEG 221250Z AUTO 00000KT 4SM BR BKN001 07/07 A3040 RMK AO2
KSEG 221243Z AUTO 00000KT 2 1/2SM BR BKN001 07/07 A3041 RMK AO2 T00670067
KSEG 221225Z AUTO 00000KT 7SM BKN001 06/06 A3041 RMK AO2 T00560056
KSEG 221216Z AUTO 00000KT 7SM SCT001 06/06 A3040 RMK AO2 T00560056
KSEG 221153Z AUTO 00000KT 7SM CLR 05/05 A3040 RMK AO2 SLP298 T00500050 10067 20044 51011
KSEG 221119Z AUTO 00000KT 8SM FEW002 04/04 A3040 RMK AO2 T00440044
KSEG 221053Z AUTO 00000KT 7SM CLR 05/05 A3039 RMK AO2 SLP294 T00500050
KSEG 220953Z AUTO 00000KT 8SM CLR 05/05 A3039 RMK AO2 SLP290 T00500050
KSEG 220853Z AUTO 00000KT 9SM CLR 06/06 A3037 RMK AO2 SLP285 T00560056 53005
KSEG 220753Z AUTO 31003KT 9SM CLR 06/06 A3036 RMK AO2 SLP279 T00560056
KSEG 220653Z AUTO 31003KT 10SM CLR 06/06 A3036 RMK AO2 SLP279 T00610061
KSEG 220553Z AUTO 00000KT 10SM CLR 06/06 A3036 RMK AO2 SLP279 T00610061 10117 20061 55002
KSEG 220453Z AUTO 00000KT 10SM CLR 07/07 A3035 RMK AO2 SLP279 T00670067 402220028
KSEG 220353Z AUTO 00000KT 10SM CLR 07/07 A3036 RMK AO2 SLP283 T00720072